Terminal Aerodrome Forecast
Issued by NWS Charleston, WV

Current Version | Previous Version | Graphics & Text | Print | Product List | Glossary On
Versions: 1 2 3 4 5 6 7 8 9 10 11 12 13 14 15 16 17 18 19 20 21 22 23
000
FTUS41 KRLX 222007 AAA
TAFEKN
TAF AMD
KEKN 222007Z 2220/2318 29010G18KT P6SM VCSH SCT030 BKN050
     FM230100 32009KT P6SM SCT030
     FM230300 35007KT P6SM SCT030
     FM230600 00000KT P6SM FEW030
     FM230700 00000KT P6SM SCT250=

USA.gov is the U.S. government's official web portal to all federal, state and local government web resources and services.